LFPM 251000Z AUTO 22008KT 180V240 CAVOK 30/20 Q1016

ElémentsDécodage
LFPM Station météo située sur l'aérodrome de MELUN Villaroche
251000Z émis le 25 du mois à 10h00 UTC
AUTO Bulletin édité par un automate
22008KT vent du 220°, 08 noeuds
180V240 vent de direction variable entre 180° et 240°
CAVOK Ceiling And Visibility OK
- Visibilité de 10 Km ou plus
- Pas de nuage au-dessous de 1500m ou au-dessous de l'altitude minimale du secteur la plus élevée (si>1500m) et absence de CB
- pas de temps présent significatif
30/20 température 30°C, point de rosée 20°C
 soit une humidité relative de 55%
Q1016 la pression au niveau de la mer (QNH) est de 1016 hPa